Time;durP1;ratioP1;P1;durP2;ratioP2;P2;SDS_P1;SDS_P2;PMS_P1;PMS_P2;Temp;Humidity;BMP_temperature;BMP_pressure;BME280_temperature;BME280_humidity;BME280_pressure;Samples;Min_cycle;Max_cycle;Signal;HPM_P1;HPM_P2
2023/04/23 00:00:32;;;;;;;;;;;13.10;96.10;;;;;;5109905;27;19912;-67
2023/04/23 00:03:00;;;;;;;;;;;13.00;96.10;;;;;;5110292;28;19908;-67
2023/04/23 00:05:26;;;;;;;;;;;13.00;96.00;;;;;;5110705;28;19973;-67
2023/04/23 00:07:52;;;;;;;;;;;13.00;96.10;;;;;;5109459;28;19937;-67
2023/04/23 00:10:18;;;;;;;;;;;13.00;96.10;;;;;;5110086;28;19908;-67
2023/04/23 00:12:44;;;;;;;;;;;13.00;96.10;;;;;;5110613;28;20006;-67
2023/04/23 00:15:10;;;;;;;;;;;12.90;96.10;;;;;;5110798;27;19919;-67
2023/04/23 00:17:36;;;;;;;;;;;12.90;96.10;;;;;;5110537;28;20326;-67
2023/04/23 00:20:01;;;;;;;;;;;12.90;96.10;;;;;;5110276;28;19923;-67
2023/04/23 00:22:27;;;;;;;;;;;12.90;96.20;;;;;;5110091;28;20363;-67
2023/04/23 00:24:52;;;;;;;;;;;12.90;96.20;;;;;;5110385;28;19919;-67
2023/04/23 00:27:19;;;;;;;;;;;12.80;96.10;;;;;;5110375;28;20368;-67
2023/04/23 00:29:45;;;;;;;;;;;12.80;96.20;;;;;;5110084;28;20433;-67
2023/04/23 00:32:11;;;;;;;;;;;12.80;96.20;;;;;;5108584;28;19911;-67
2023/04/23 00:34:36;;;;;;;;;;;12.80;96.30;;;;;;5110331;28;20265;-67
2023/04/23 00:37:05;;;;;;;;;;;12.80;96.30;;;;;;5108927;28;19915;-67
2023/04/23 00:39:31;;;;;;;;;;;12.80;96.30;;;;;;5110213;28;19911;-67
2023/04/23 00:41:59;;;;;;;;;;;12.70;96.30;;;;;;5109405;28;20395;-67
2023/04/23 00:44:24;;;;;;;;;;;12.70;96.30;;;;;;5109495;28;19966;-66
2023/04/23 00:46:51;;;;;;;;;;;12.70;96.30;;;;;;5109173;28;20315;-67
2023/04/23 00:49:17;;;;;;;;;;;12.70;96.30;;;;;;5108143;28;19966;-67
2023/04/23 00:51:43;;;;;;;;;;;12.60;96.30;;;;;;5108657;28;19908;-67
2023/04/23 00:54:08;;;;;;;;;;;12.70;96.40;;;;;;5109606;28;19915;-67
2023/04/23 00:56:34;;;;;;;;;;;12.60;96.40;;;;;;5109930;28;19939;-67
2023/04/23 00:59:02;;;;;;;;;;;12.60;96.40;;;;;;5107725;28;19911;-67
2023/04/23 01:01:29;;;;;;;;;;;12.60;96.40;;;;;;5109593;28;19957;-67
2023/04/23 01:03:55;;;;;;;;;;;12.60;96.30;;;;;;5109077;28;19964;-67
2023/04/23 01:06:20;;;;;;;;;;;12.60;96.40;;;;;;5107455;28;19907;-67
2023/04/23 01:08:46;;;;;;;;;;;12.60;96.40;;;;;;5109162;28;20444;-67
2023/04/23 01:11:13;;;;;;;;;;;12.60;96.40;;;;;;5109530;28;19960;-67
2023/04/23 01:13:38;;;;;;;;;;;12.50;96.30;;;;;;5109350;28;20365;-67
2023/04/23 01:16:04;;;;;;;;;;;12.50;96.40;;;;;;5109329;28;19911;-67
2023/04/23 01:18:30;;;;;;;;;;;12.50;96.40;;;;;;5109273;28;19926;-67
2023/04/23 01:20:55;;;;;;;;;;;12.50;96.40;;;;;;5109408;28;19915;-67
2023/04/23 01:23:21;;;;;;;;;;;12.50;96.70;;;;;;5109172;28;19912;-67
2023/04/23 01:25:46;;;;;;;;;;;12.50;96.40;;;;;;5109072;28;19916;-67
2023/04/23 01:28:12;;;;;;;;;;;12.40;96.40;;;;;;5109453;28;20351;-67
2023/04/23 01:30:39;;;;;;;;;;;12.40;96.40;;;;;;5109214;28;19995;-67
2023/04/23 01:33:06;;;;;;;;;;;12.40;96.50;;;;;;5108668;28;19964;-67
2023/04/23 01:35:32;;;;;;;;;;;12.40;96.40;;;;;;5109015;28;19916;-67
2023/04/23 01:37:59;;;;;;;;;;;12.40;96.40;;;;;;5109258;28;20510;-67
2023/04/23 01:40:24;;;;;;;;;;;12.40;96.40;;;;;;5107906;28;19912;-67
2023/04/23 01:42:50;;;;;;;;;;;12.30;96.40;;;;;;5108761;28;19912;-67
2023/04/23 01:45:18;;;;;;;;;;;12.30;96.40;;;;;;5109059;28;19912;-67
2023/04/23 01:47:44;;;;;;;;;;;12.30;96.40;;;;;;5109182;28;20459;-67
2023/04/23 01:50:10;;;;;;;;;;;12.30;96.50;;;;;;5109123;28;19912;-67
2023/04/23 01:52:35;;;;;;;;;;;12.30;96.50;;;;;;5108603;28;20699;-67
2023/04/23 01:55:01;;;;;;;;;;;12.30;96.60;;;;;;5109023;28;19951;-67
2023/04/23 01:57:26;;;;;;;;;;;12.30;96.60;;;;;;5102798;28;20370;-67
2023/04/23 02:00:02;;;;;;;;;;;12.20;96.60;;;;;;5108441;28;20012;-67
2023/04/23 02:02:28;;;;;;;;;;;12.20;96.60;;;;;;5106855;28;20000;-67
2023/04/23 02:04:54;;;;;;;;;;;12.20;96.60;;;;;;5108507;28;20052;-67
2023/04/23 02:07:20;;;;;;;;;;;12.20;96.60;;;;;;5108613;28;19991;-67
2023/04/23 02:09:45;;;;;;;;;;;12.20;96.70;;;;;;5108875;28;20048;-67
2023/04/23 02:12:10;;;;;;;;;;;12.10;96.60;;;;;;5107268;28;20403;-67
2023/04/23 02:14:36;;;;;;;;;;;12.10;96.70;;;;;;5108733;28;19911;-67
2023/04/23 02:17:02;;;;;;;;;;;12.10;96.60;;;;;;5108877;28;19912;-67
2023/04/23 02:19:30;;;;;;;;;;;12.10;96.70;;;;;;5108587;28;19945;-67
2023/04/23 02:21:56;;;;;;;;;;;12.00;96.60;;;;;;5108423;28;19908;-67
2023/04/23 02:24:21;;;;;;;;;;;12.10;96.70;;;;;;5108412;28;19941;-67
2023/04/23 02:26:47;;;;;;;;;;;12.00;96.70;;;;;;5108758;28;19912;-67
2023/04/23 02:29:13;;;;;;;;;;;12.00;96.70;;;;;;5108679;28;19908;-67
2023/04/23 02:31:39;;;;;;;;;;;12.00;96.60;;;;;;5108633;28;19915;-67
2023/04/23 02:34:04;;;;;;;;;;;12.00;96.60;;;;;;5109956;28;19912;-67
2023/04/23 02:36:31;;;;;;;;;;;12.00;96.70;;;;;;5112726;28;19908;-67
2023/04/23 02:38:56;;;;;;;;;;;11.90;96.60;;;;;;5111865;28;19911;-67
2023/04/23 02:41:22;;;;;;;;;;;11.90;96.60;;;;;;5110762;28;19916;-67
2023/04/23 02:43:47;;;;;;;;;;;11.90;96.70;;;;;;5112221;28;19912;-67
2023/04/23 02:46:13;;;;;;;;;;;11.90;96.70;;;;;;5112519;28;20017;-67
2023/04/23 02:48:40;;;;;;;;;;;11.90;96.60;;;;;;5112383;28;20368;-67
2023/04/23 02:51:07;;;;;;;;;;;11.90;96.70;;;;;;5110875;28;19908;-67
2023/04/23 02:53:32;;;;;;;;;;;11.80;96.70;;;;;;5110385;28;19912;-67
2023/04/23 02:55:58;;;;;;;;;;;11.80;96.60;;;;;;5112177;28;19912;-67
2023/04/23 02:58:23;;;;;;;;;;;11.80;96.70;;;;;;5105836;28;20579;-67
2023/04/23 03:00:49;;;;;;;;;;;11.80;96.70;;;;;;5111924;28;19938;-67
2023/04/23 03:03:14;;;;;;;;;;;11.80;96.70;;;;;;5111757;28;19912;-67
2023/04/23 03:05:40;;;;;;;;;;;11.70;96.60;;;;;;5112082;28;19955;-67
2023/04/23 03:08:05;;;;;;;;;;;11.70;96.70;;;;;;5111833;28;20665;-67
2023/04/23 03:10:31;;;;;;;;;;;11.70;96.70;;;;;;5109585;28;19924;-67
2023/04/23 03:12:56;;;;;;;;;;;11.70;96.80;;;;;;5106198;28;20456;-67
2023/04/23 03:15:22;;;;;;;;;;;11.70;96.80;;;;;;5108774;28;20000;-67
2023/04/23 03:17:47;;;;;;;;;;;11.60;96.70;;;;;;5111701;28;19991;-67
2023/04/23 03:20:13;;;;;;;;;;;11.60;96.80;;;;;;5109596;28;20436;-67
2023/04/23 03:22:39;;;;;;;;;;;11.60;96.70;;;;;;5107521;28;19919;-67
2023/04/23 03:25:05;;;;;;;;;;;11.60;96.60;;;;;;5109491;28;19923;-67
2023/04/23 03:27:31;;;;;;;;;;;11.60;96.50;;;;;;5110450;28;20383;-67
2023/04/23 03:29:56;;;;;;;;;;;11.60;96.60;;;;;;5111379;28;19965;-67
2023/04/23 03:32:22;;;;;;;;;;;11.60;96.60;;;;;;5109960;28;19916;-67
2023/04/23 03:34:47;;;;;;;;;;;11.60;96.60;;;;;;5111609;28;19915;-67
2023/04/23 03:37:13;;;;;;;;;;;11.60;96.70;;;;;;5111335;28;19908;-67
2023/04/23 03:39:39;;;;;;;;;;;11.50;96.70;;;;;;5144457;27;19968;-67
2023/04/23 03:42:04;;;;;;;;;;;11.50;96.70;;;;;;5109594;28;19912;-67
2023/04/23 03:44:30;;;;;;;;;;;11.50;96.80;;;;;;5110202;28;20487;-67
2023/04/23 03:46:55;;;;;;;;;;;11.50;96.80;;;;;;5111525;28;20499;-67
2023/04/23 03:49:21;;;;;;;;;;;11.50;96.70;;;;;;5111229;28;20384;-67
2023/04/23 03:51:47;;;;;;;;;;;11.50;96.70;;;;;;5111041;28;19943;-67
2023/04/23 03:54:13;;;;;;;;;;;11.40;96.70;;;;;;5111031;28;19990;-67
2023/04/23 03:56:38;;;;;;;;;;;11.40;96.80;;;;;;5110287;28;19919;-67
2023/04/23 03:59:04;;;;;;;;;;;11.40;96.70;;;;;;5105529;28;20666;-67
2023/04/23 04:01:31;;;;;;;;;;;11.40;96.70;;;;;;5110719;28;20509;-67
2023/04/23 04:03:56;;;;;;;;;;;11.40;96.70;;;;;;5106855;28;19912;-67
2023/04/23 04:06:22;;;;;;;;;;;11.40;96.70;;;;;;5106726;27;20352;-67
2023/04/23 04:08:47;;;;;;;;;;;11.40;96.70;;;;;;5096196;28;19912;-67
2023/04/23 04:11:13;;;;;;;;;;;11.40;96.70;;;;;;5110035;27;19907;-67
2023/04/23 04:13:38;;;;;;;;;;;11.40;96.80;;;;;;5106610;27;20646;-67
2023/04/23 04:16:04;;;;;;;;;;;11.40;96.70;;;;;;5109171;28;20022;-67
2023/04/23 04:18:30;;;;;;;;;;;11.40;96.70;;;;;;5110434;28;19965;-67
2023/04/23 04:20:55;;;;;;;;;;;11.40;96.80;;;;;;5110023;28;20517;-67
2023/04/23 04:23:21;;;;;;;;;;;11.30;96.60;;;;;;5108287;28;19923;-67
2023/04/23 04:25:46;;;;;;;;;;;11.30;96.60;;;;;;5109954;28;20228;-67
2023/04/23 04:28:12;;;;;;;;;;;11.30;96.70;;;;;;5110014;28;19919;-67
2023/04/23 04:30:38;;;;;;;;;;;11.30;96.70;;;;;;5110060;28;20019;-67
2023/04/23 04:33:03;;;;;;;;;;;11.30;96.70;;;;;;5108347;28;20486;-67
2023/04/23 04:35:29;;;;;;;;;;;11.30;96.70;;;;;;5110236;28;19918;-67
2023/04/23 04:37:54;;;;;;;;;;;11.30;96.70;;;;;;5109831;28;19999;-67
2023/04/23 04:40:20;;;;;;;;;;;11.30;96.70;;;;;;5109863;28;20041;-67
2023/04/23 04:42:46;;;;;;;;;;;11.30;96.70;;;;;;5109468;28;19919;-67
2023/04/23 04:45:11;;;;;;;;;;;11.30;96.70;;;;;;5109618;28;19924;-67
2023/04/23 04:47:37;;;;;;;;;;;11.30;96.70;;;;;;5109400;28;19908;-67
2023/04/23 04:50:03;;;;;;;;;;;11.20;96.70;;;;;;5109708;28;20402;-67
2023/04/23 04:52:28;;;;;;;;;;;11.20;96.70;;;;;;5109300;28;20360;-67
2023/04/23 04:54:54;;;;;;;;;;;11.20;96.70;;;;;;5109812;28;19912;-67
2023/04/23 04:57:21;;;;;;;;;;;11.20;96.70;;;;;;5103096;27;20303;-67
2023/04/23 04:59:47;;;;;;;;;;;11.20;96.70;;;;;;5109262;28;19911;-67
2023/04/23 05:02:13;;;;;;;;;;;11.20;96.70;;;;;;5109001;28;20273;-67
2023/04/23 05:04:38;;;;;;;;;;;11.20;96.80;;;;;;5109323;28;20000;-67
2023/04/23 05:07:04;;;;;;;;;;;11.20;96.70;;;;;;5109255;28;19915;-67
2023/04/23 05:09:29;;;;;;;;;;;11.20;96.70;;;;;;5109423;28;19919;-67
2023/04/23 05:11:55;;;;;;;;;;;11.20;96.60;;;;;;5108867;28;19912;-67
2023/04/23 05:14:21;;;;;;;;;;;11.20;96.70;;;;;;5108968;28;19941;-67
2023/04/23 05:16:46;;;;;;;;;;;11.20;96.70;;;;;;5108888;28;20349;-67
2023/04/23 05:19:12;;;;;;;;;;;11.20;96.70;;;;;;5108895;28;20368;-67
2023/04/23 05:21:38;;;;;;;;;;;11.10;96.60;;;;;;5107968;28;19908;-67
2023/04/23 05:24:03;;;;;;;;;;;11.10;96.60;;;;;;5109103;28;20303;-67
2023/04/23 05:26:29;;;;;;;;;;;11.10;96.70;;;;;;5109134;28;20522;-67
2023/04/23 05:28:55;;;;;;;;;;;11.10;96.50;;;;;;5107994;28;19912;-67
2023/04/23 05:31:20;;;;;;;;;;;11.10;96.80;;;;;;5108842;28;19912;-67
2023/04/23 05:33:46;;;;;;;;;;;11.10;96.50;;;;;;5108496;28;19919;-67
2023/04/23 05:36:12;;;;;;;;;;;11.20;96.40;;;;;;5107316;28;19916;-67
2023/04/23 05:38:37;;;;;;;;;;;11.10;96.30;;;;;;5108860;28;20262;-67
2023/04/23 05:41:03;;;;;;;;;;;11.20;96.20;;;;;;5108658;28;19908;-67
2023/04/23 05:43:28;;;;;;;;;;;11.20;96.20;;;;;;5108749;28;19908;-67
2023/04/23 05:45:54;;;;;;;;;;;11.20;96.10;;;;;;5108715;28;20523;-67
2023/04/23 05:48:19;;;;;;;;;;;11.20;96.10;;;;;;5108752;28;20318;-67
2023/04/23 05:50:45;;;;;;;;;;;11.20;96.10;;;;;;5108571;28;19912;-67
2023/04/23 05:53:10;;;;;;;;;;;11.20;96.00;;;;;;5108444;28;19943;-67
2023/04/23 05:55:36;;;;;;;;;;;11.20;95.90;;;;;;5107069;28;19955;-67
2023/04/23 05:58:01;;;;;;;;;;;11.30;95.80;;;;;;5102502;28;19911;-67
2023/04/23 06:00:27;;;;;;;;;;;11.30;95.60;;;;;;5108392;28;19914;-67
2023/04/23 06:02:53;;;;;;;;;;;11.30;95.60;;;;;;5108211;28;20451;-67
2023/04/23 06:05:18;;;;;;;;;;;11.30;95.70;;;;;;5107949;28;19923;-67
2023/04/23 06:07:44;;;;;;;;;;;11.40;95.80;;;;;;5109773;28;20035;-67
2023/04/23 06:10:09;;;;;;;;;;;11.40;95.80;;;;;;5113099;28;19964;-67
2023/04/23 06:12:38;;;;;;;;;;;11.40;95.70;;;;;;5112494;28;20020;-67
2023/04/23 06:15:07;;;;;;;;;;;11.40;95.80;;;;;;5111678;28;19946;-67
2023/04/23 06:17:33;;;;;;;;;;;11.40;95.80;;;;;;5112798;28;19914;-67
2023/04/23 06:19:59;;;;;;;;;;;11.50;95.70;;;;;;5112627;28;20002;-67
2023/04/23 06:22:25;;;;;;;;;;;11.50;95.80;;;;;;5112667;28;20010;-67
2023/04/23 06:24:50;;;;;;;;;;;11.50;95.70;;;;;;5111544;28;20007;-67
2023/04/23 06:27:16;;;;;;;;;;;11.50;95.60;;;;;;5112833;28;19911;-67
2023/04/23 06:29:41;;;;;;;;;;;11.50;95.70;;;;;;5112902;28;20518;-67
2023/04/23 06:32:06;;;;;;;;;;;11.60;95.60;;;;;;5112467;28;20319;-67
2023/04/23 06:34:32;;;;;;;;;;;11.60;95.60;;;;;;5112425;28;19918;-67
2023/04/23 06:36:57;;;;;;;;;;;11.60;95.60;;;;;;5111313;28;19911;-67
2023/04/23 06:39:23;;;;;;;;;;;11.60;95.60;;;;;;5112534;28;20395;-67
2023/04/23 06:41:49;;;;;;;;;;;11.70;95.50;;;;;;5112251;28;19915;-67
2023/04/23 06:44:15;;;;;;;;;;;11.70;95.50;;;;;;5110988;28;19912;-67
2023/04/23 06:46:40;;;;;;;;;;;11.70;95.50;;;;;;5112333;28;19912;-67
2023/04/23 06:49:06;;;;;;;;;;;11.80;95.50;;;;;;5111898;27;19918;-67
2023/04/23 06:51:31;;;;;;;;;;;11.80;95.50;;;;;;5112072;28;19915;-67
2023/04/23 06:53:57;;;;;;;;;;;11.80;95.50;;;;;;5112030;28;19920;-67
2023/04/23 06:56:23;;;;;;;;;;;11.90;95.40;;;;;;5110923;28;19911;-67
2023/04/23 06:58:48;;;;;;;;;;;11.90;95.40;;;;;;5105744;28;20374;-67
2023/04/23 07:01:14;;;;;;;;;;;12.00;95.40;;;;;;5111715;28;19912;-67
2023/04/23 07:03:43;;;;;;;;;;;12.00;95.40;;;;;;5107976;27;19912;-67
2023/04/23 07:06:09;;;;;;;;;;;12.00;95.30;;;;;;5111719;28;20439;-67
2023/04/23 07:08:34;;;;;;;;;;;12.10;95.40;;;;;;5110508;28;19911;-67
2023/04/23 07:11:00;;;;;;;;;;;12.10;95.30;;;;;;5111785;28;19914;-67
2023/04/23 07:13:26;;;;;;;;;;;12.10;95.40;;;;;;5111864;28;19912;-67
2023/04/23 07:15:52;;;;;;;;;;;12.10;95.20;;;;;;5111608;28;19959;-67
2023/04/23 07:18:17;;;;;;;;;;;12.20;95.20;;;;;;5111215;28;19943;-67
2023/04/23 07:20:43;;;;;;;;;;;12.20;95.10;;;;;;5110109;28;19920;-67
2023/04/23 07:23:09;;;;;;;;;;;12.30;95.00;;;;;;5111123;28;19919;-67
2023/04/23 07:25:34;;;;;;;;;;;12.30;95.10;;;;;;5111334;28;20007;-67
2023/04/23 07:28:00;;;;;;;;;;;12.30;95.10;;;;;;5111648;28;19912;-67
2023/04/23 07:30:26;;;;;;;;;;;12.40;95.00;;;;;;5111644;28;19918;-67
2023/04/23 07:32:52;;;;;;;;;;;12.40;95.20;;;;;;5111084;28;20008;-67
2023/04/23 07:35:17;;;;;;;;;;;12.40;95.10;;;;;;5111576;28;20376;-67
2023/04/23 07:37:43;;;;;;;;;;;12.50;95.10;;;;;;5111234;28;20600;-67
2023/04/23 07:40:08;;;;;;;;;;;12.50;95.00;;;;;;5109767;28;20544;-67
2023/04/23 07:42:34;;;;;;;;;;;12.50;95.00;;;;;;5110990;28;19915;-67
2023/04/23 07:45:00;;;;;;;;;;;12.60;95.00;;;;;;5111222;28;19951;-67
2023/04/23 07:47:25;;;;;;;;;;;12.60;94.90;;;;;;5111195;28;19918;-67
2023/04/23 07:49:51;;;;;;;;;;;12.60;94.90;;;;;;5111161;28;19919;-67
2023/04/23 07:52:16;;;;;;;;;;;12.60;94.90;;;;;;5110838;28;19911;-67
2023/04/23 07:54:42;;;;;;;;;;;12.70;94.90;;;;;;5109782;28;20444;-67
2023/04/23 07:57:09;;;;;;;;;;;12.70;94.90;;;;;;5110883;28;19961;-67
2023/04/23 07:59:34;;;;;;;;;;;12.70;94.70;;;;;;5110659;27;20581;-67
2023/04/23 08:02:00;;;;;;;;;;;12.80;94.70;;;;;;5111063;28;20010;-68
2023/04/23 08:04:25;;;;;;;;;;;12.80;94.50;;;;;;5110704;27;19916;-67
2023/04/23 08:06:51;;;;;;;;;;;12.80;94.60;;;;;;5110702;28;20391;-67
2023/04/23 08:09:16;;;;;;;;;;;12.90;94.60;;;;;;5110356;28;20257;-67
2023/04/23 08:11:42;;;;;;;;;;;12.90;94.60;;;;;;5110268;28;20310;-67
2023/04/23 08:14:07;;;;;;;;;;;12.90;94.50;;;;;;5110389;28;20042;-67
2023/04/23 08:16:33;;;;;;;;;;;12.90;94.40;;;;;;5110180;28;20366;-68
2023/04/23 08:18:58;;;;;;;;;;;13.00;94.40;;;;;;5110350;28;19916;-67
2023/04/23 08:21:25;;;;;;;;;;;13.00;94.50;;;;;;5110457;28;20283;-67
2023/04/23 08:23:51;;;;;;;;;;;13.00;94.40;;;;;;5110284;28;19908;-67
2023/04/23 08:26:17;;;;;;;;;;;13.10;94.40;;;;;;5110331;28;19916;-67
2023/04/23 08:28:42;;;;;;;;;;;13.10;94.30;;;;;;5110461;28;19911;-67
2023/04/23 08:31:08;;;;;;;;;;;13.10;94.30;;;;;;5109696;28;19953;-67
2023/04/23 08:33:33;;;;;;;;;;;13.20;94.30;;;;;;5110017;28;19907;-67
2023/04/23 08:35:59;;;;;;;;;;;13.30;94.20;;;;;;5110095;28;19918;-67
2023/04/23 08:38:24;;;;;;;;;;;13.20;94.40;;;;;;5110212;28;20573;-67
2023/04/23 08:40:52;;;;;;;;;;;13.30;94.20;;;;;;5109603;28;19934;-67
2023/04/23 08:43:18;;;;;;;;;;;13.40;94.00;;;;;;5109868;28;19911;-67
2023/04/23 08:45:48;;;;;;;;;;;13.40;93.90;;;;;;5109884;28;19955;-67
2023/04/23 08:48:13;;;;;;;;;;;13.50;93.90;;;;;;5109935;28;19912;-67
2023/04/23 08:50:41;;;;;;;;;;;13.50;93.90;;;;;;5109904;28;19908;-67
2023/04/23 08:53:07;;;;;;;;;;;13.50;93.90;;;;;;5109480;28;19916;-67
2023/04/23 08:55:33;;;;;;;;;;;13.60;93.80;;;;;;5109843;28;19918;-67
2023/04/23 08:58:00;;;;;;;;;;;13.60;93.90;;;;;;5108039;28;19919;-67
2023/04/23 09:00:25;;;;;;;;;;;13.70;93.70;;;;;;5109456;28;20609;-67
2023/04/23 09:02:51;;;;;;;;;;;13.80;93.60;;;;;;5107763;28;19911;-67
2023/04/23 09:05:17;;;;;;;;;;;13.80;93.60;;;;;;5109620;28;19923;-68
2023/04/23 09:07:43;;;;;;;;;;;13.90;93.50;;;;;;5109409;28;19916;-67
2023/04/23 09:10:10;;;;;;;;;;;13.90;93.50;;;;;;5109482;28;19907;-67
2023/04/23 09:12:36;;;;;;;;;;;14.00;93.40;;;;;;5109156;28;19912;-67
2023/04/23 09:15:09;;;;;;;;;;;14.00;93.30;;;;;;5109283;28;19912;-67
2023/04/23 09:17:35;;;;;;;;;;;14.10;93.50;;;;;;5109386;28;19912;-67
2023/04/23 09:20:01;;;;;;;;;;;14.10;93.50;;;;;;5109376;28;19920;-67
2023/04/23 09:22:40;;;;;;;;;;;14.20;93.40;;;;;;5109292;28;19953;-67
2023/04/23 09:25:09;;;;;;;;;;;14.30;93.60;;;;;;5109576;28;19915;-67
2023/04/23 09:27:35;;;;;;;;;;;14.30;93.50;;;;;;5109573;28;19908;-67
2023/04/23 09:30:10;;;;;;;;;;;14.40;93.40;;;;;;5109295;28;19946;-67
2023/04/23 09:32:37;;;;;;;;;;;14.60;93.30;;;;;;5108891;28;19915;-68
2023/04/23 09:35:06;;;;;;;;;;;14.60;93.30;;;;;;5109168;28;19954;-68
2023/04/23 09:37:32;;;;;;;;;;;14.60;93.30;;;;;;5109361;28;19915;-68
2023/04/23 09:39:58;;;;;;;;;;;14.70;93.30;;;;;;5109373;28;19976;-68
2023/04/23 09:42:25;;;;;;;;;;;14.80;93.20;;;;;;5103239;28;19965;-67
2023/04/23 09:45:17;;;;;;;;;;;14.80;93.10;;;;;;5107643;28;19916;-67
2023/04/23 09:47:53;;;;;;;;;;;14.90;93.20;;;;;;5106689;28;19915;-68
2023/04/23 09:50:19;;;;;;;;;;;15.00;93.10;;;;;;5108873;28;20593;-68
2023/04/23 09:52:44;;;;;;;;;;;15.00;92.90;;;;;;5107399;28;20002;-68
2023/04/23 09:55:10;;;;;;;;;;;15.00;93.00;;;;;;5109188;28;20006;-68
2023/04/23 09:57:36;;;;;;;;;;;15.10;93.00;;;;;;5102907;28;20688;-68
2023/04/23 10:00:18;;;;;;;;;;;15.10;92.80;;;;;;5108512;28;20295;-68
2023/04/23 10:02:48;;;;;;;;;;;15.20;92.80;;;;;;5108481;28;19939;-68
2023/04/23 10:05:17;;;;;;;;;;;15.30;92.60;;;;;;5104313;28;20622;-68
2023/04/23 10:07:47;;;;;;;;;;;15.30;92.50;;;;;;5094147;28;19920;-68
2023/04/23 10:10:17;;;;;;;;;;;15.40;92.50;;;;;;5103506;28;19915;-68
2023/04/23 10:12:43;;;;;;;;;;;15.40;92.60;;;;;;5101320;28;19942;-68
2023/04/23 10:15:09;;;;;;;;;;;15.40;92.50;;;;;;5097947;28;20667;-68
2023/04/23 10:17:38;;;;;;;;;;;15.50;92.40;;;;;;5108711;28;19912;-68
2023/04/23 10:20:05;;;;;;;;;;;15.50;92.40;;;;;;5106669;28;20006;-68
2023/04/23 10:22:32;;;;;;;;;;;15.60;92.30;;;;;;5108115;28;19954;-68
2023/04/23 10:24:59;;;;;;;;;;;15.60;92.40;;;;;;5108446;28;19915;-68
2023/04/23 10:27:29;;;;;;;;;;;15.60;92.40;;;;;;5096933;28;19912;-68
2023/04/23 10:29:56;;;;;;;;;;;15.60;92.30;;;;;;5088184;28;20339;-68
2023/04/23 10:32:22;;;;;;;;;;;15.60;92.40;;;;;;5087823;28;19912;-68
2023/04/23 10:34:48;;;;;;;;;;;15.60;92.40;;;;;;5088131;28;20004;-68
2023/04/23 10:37:14;;;;;;;;;;;15.60;92.40;;;;;;5088227;28;19919;-68
2023/04/23 10:39:42;;;;;;;;;;;15.70;92.30;;;;;;5088403;28;19919;-68
2023/04/23 10:42:07;;;;;;;;;;;15.80;92.20;;;;;;5106315;28;19908;-68
2023/04/23 10:44:35;;;;;;;;;;;15.80;92.20;;;;;;5108071;28;19941;-68
2023/04/23 10:47:01;;;;;;;;;;;15.90;92.20;;;;;;5108248;28;19911;-68
2023/04/23 10:49:30;;;;;;;;;;;15.90;92.00;;;;;;5108201;28;20569;-68
2023/04/23 10:52:00;;;;;;;;;;;16.00;92.00;;;;;;5107973;28;19966;-68
2023/04/23 10:54:30;;;;;;;;;;;16.00;91.70;;;;;;5110351;28;19915;-68
2023/04/23 10:57:00;;;;;;;;;;;16.10;92.20;;;;;;5111951;28;19916;-68
2023/04/23 10:59:28;;;;;;;;;;;16.20;91.80;;;;;;5111623;28;20393;-68
2023/04/23 11:01:55;;;;;;;;;;;16.20;91.80;;;;;;5111764;28;19908;-68
2023/04/23 11:04:27;;;;;;;;;;;16.30;91.70;;;;;;5112027;28;20352;-68
2023/04/23 11:06:57;;;;;;;;;;;16.40;91.60;;;;;;5110537;28;19958;-68
2023/04/23 11:09:43;;;;;;;;;;;16.40;91.50;;;;;;5111627;28;19907;-68
2023/04/23 11:12:38;;;;;;;;;;;16.50;91.50;;;;;;5111512;28;19912;-68
2023/04/23 11:15:10;;;;;;;;;;;16.50;91.50;;;;;;5102319;28;19954;-68
2023/04/23 11:17:36;;;;;;;;;;;16.50;91.50;;;;;;5111740;28;19938;-68
2023/04/23 11:20:12;;;;;;;;;;;16.50;91.20;;;;;;5111408;28;19927;-68
2023/04/23 11:22:41;;;;;;;;;;;16.50;91.40;;;;;;5111162;28;19943;-68
2023/04/23 11:25:07;;;;;;;;;;;16.50;91.40;;;;;;5111231;27;19949;-68
2023/04/23 11:27:35;;;;;;;;;;;16.50;91.40;;;;;;5111766;28;19939;-68
2023/04/23 11:30:00;;;;;;;;;;;16.50;91.30;;;;;;5111594;28;19912;-68
2023/04/23 11:32:26;;;;;;;;;;;16.60;91.50;;;;;;5111147;28;19911;-68
2023/04/23 11:34:52;;;;;;;;;;;16.60;91.50;;;;;;5111551;28;20293;-68
2023/04/23 11:37:18;;;;;;;;;;;16.70;91.40;;;;;;5111205;28;19918;-68
2023/04/23 11:39:44;;;;;;;;;;;16.70;91.40;;;;;;5111007;28;19911;-68
2023/04/23 11:42:10;;;;;;;;;;;16.80;91.40;;;;;;5110644;28;20627;-68
2023/04/23 11:44:40;;;;;;;;;;;16.90;91.30;;;;;;5111007;28;20300;-68
2023/04/23 11:47:11;;;;;;;;;;;17.00;91.30;;;;;;5118164;27;19911;-68
2023/04/23 11:49:37;;;;;;;;;;;17.10;91.00;;;;;;5144533;27;19924;-68
2023/04/23 11:52:03;;;;;;;;;;;17.30;90.60;;;;;;5110838;28;19912;-68
2023/04/23 11:54:29;;;;;;;;;;;17.30;90.80;;;;;;5110851;28;20006;-68
2023/04/23 11:56:55;;;;;;;;;;;17.40;90.50;;;;;;5107748;28;20476;-68
2023/04/23 11:59:21;;;;;;;;;;;17.50;90.50;;;;;;5107604;28;20318;-68
2023/04/23 12:01:48;;;;;;;;;;;17.40;90.50;;;;;;5110554;27;19935;-68
2023/04/23 12:04:20;;;;;;;;;;;17.40;90.10;;;;;;5110439;28;19920;-68
2023/04/23 12:06:47;;;;;;;;;;;17.40;90.80;;;;;;5109415;28;20028;-68
2023/04/23 12:09:13;;;;;;;;;;;17.40;90.90;;;;;;5110690;28;19962;-68
2023/04/23 12:11:39;;;;;;;;;;;17.30;91.00;;;;;;5109082;28;20743;-68
2023/04/23 12:14:07;;;;;;;;;;;17.30;91.20;;;;;;5110893;28;20307;-68
2023/04/23 12:16:37;;;;;;;;;;;17.20;91.40;;;;;;5110703;28;19919;-68
2023/04/23 12:19:03;;;;;;;;;;;17.20;91.40;;;;;;5110489;28;20333;-68
2023/04/23 12:21:28;;;;;;;;;;;17.30;91.40;;;;;;5110605;28;19908;-68
2023/04/23 12:23:55;;;;;;;;;;;17.30;91.30;;;;;;5110284;28;19997;-68
2023/04/23 12:26:20;;;;;;;;;;;17.40;91.20;;;;;;5110353;28;20364;-68
2023/04/23 12:28:46;;;;;;;;;;;17.50;90.80;;;;;;5110638;28;19918;-68
2023/04/23 12:31:17;;;;;;;;;;;17.60;90.70;;;;;;5110156;28;19916;-68
2023/04/23 12:33:43;;;;;;;;;;;17.60;90.60;;;;;;5110163;28;20481;-68
2023/04/23 12:36:10;;;;;;;;;;;17.70;90.40;;;;;;5110246;28;19926;-68
2023/04/23 12:38:36;;;;;;;;;;;17.80;90.30;;;;;;5110415;28;19911;-68
2023/04/23 12:41:01;;;;;;;;;;;17.80;90.00;;;;;;5110101;28;20551;-68
2023/04/23 12:43:27;;;;;;;;;;;17.90;90.20;;;;;;5109980;28;19914;-69
2023/04/23 12:45:56;;;;;;;;;;;18.00;90.10;;;;;;5108683;28;20427;-68
2023/04/23 12:48:21;;;;;;;;;;;18.10;90.10;;;;;;5110103;28;20447;-68
2023/04/23 12:50:47;;;;;;;;;;;18.10;90.00;;;;;;5110204;28;19912;-68
2023/04/23 12:53:13;;;;;;;;;;;18.10;89.80;;;;;;5109652;28;19908;-68
2023/04/23 12:55:38;;;;;;;;;;;18.10;89.50;;;;;;5109843;28;19912;-68
2023/04/23 12:58:04;;;;;;;;;;;18.20;88.50;;;;;;5108259;28;19908;-68
2023/04/23 13:00:30;;;;;;;;;;;18.30;89.30;;;;;;5109665;28;19919;-68
2023/04/23 13:02:55;;;;;;;;;;;18.40;88.80;;;;;;5109581;28;19911;-68
2023/04/23 13:05:21;;;;;;;;;;;18.40;88.30;;;;;;5109813;28;20005;-68
2023/04/23 13:07:46;;;;;;;;;;;18.40;89.20;;;;;;5109597;28;20523;-68
2023/04/23 13:10:12;;;;;;;;;;;18.40;89.40;;;;;;5109525;28;19919;-68
2023/04/23 13:12:38;;;;;;;;;;;18.40;90.00;;;;;;5107798;28;20395;-68
2023/04/23 13:15:04;;;;;;;;;;;18.40;89.80;;;;;;5107779;28;19911;-68
2023/04/23 13:17:30;;;;;;;;;;;18.40;89.70;;;;;;5109170;28;19916;-68
2023/04/23 13:19:56;;;;;;;;;;;18.50;89.60;;;;;;5109216;28;19924;-69
2023/04/23 13:22:27;;;;;;;;;;;18.50;89.60;;;;;;5109211;27;20333;-69
2023/04/23 13:24:52;;;;;;;;;;;18.50;89.50;;;;;;5109572;28;19916;-68
2023/04/23 13:27:18;;;;;;;;;;;18.60;89.40;;;;;;5109253;28;19912;-68
2023/04/23 13:29:43;;;;;;;;;;;18.50;89.60;;;;;;5109390;28;20644;-68
2023/04/23 13:32:09;;;;;;;;;;;18.50;89.90;;;;;;5108947;28;19946;-68
2023/04/23 13:34:34;;;;;;;;;;;18.50;88.10;;;;;;5109194;28;19959;-69
2023/04/23 13:37:04;;;;;;;;;;;18.60;90.00;;;;;;5109241;28;19912;-69
2023/04/23 13:39:30;;;;;;;;;;;18.50;89.90;;;;;;5109216;28;19964;-68
2023/04/23 13:41:56;;;;;;;;;;;18.50;89.50;;;;;;5108832;28;19911;-69
2023/04/23 13:44:21;;;;;;;;;;;18.60;89.60;;;;;;5109231;28;20589;-68
2023/04/23 13:46:47;;;;;;;;;;;18.70;89.40;;;;;;5109111;28;19908;-68
2023/04/23 13:49:13;;;;;;;;;;;18.70;89.10;;;;;;5107603;28;19935;-68
2023/04/23 13:51:38;;;;;;;;;;;18.70;88.20;;;;;;5107560;28;19912;-69
2023/04/23 13:54:05;;;;;;;;;;;18.80;88.10;;;;;;5108882;28;20557;-68
2023/04/23 13:56:31;;;;;;;;;;;18.90;87.20;;;;;;5108680;28;19912;-68
2023/04/23 13:59:00;;;;;;;;;;;18.90;87.60;;;;;;5106997;28;20296;-68
2023/04/23 14:01:26;;;;;;;;;;;18.90;87.70;;;;;;5108458;28;19908;-68
2023/04/23 14:03:52;;;;;;;;;;;18.90;88.20;;;;;;5108595;28;20350;-68
2023/04/23 14:06:17;;;;;;;;;;;18.90;87.10;;;;;;5108932;28;20015;-68
2023/04/23 14:08:43;;;;;;;;;;;19.00;87.10;;;;;;5108939;28;19960;-69
2023/04/23 14:11:09;;;;;;;;;;;19.00;87.60;;;;;;5107425;28;19924;-68